createdAt,value
2022-10-16T00:01:23.196Z,1.13
2022-10-16T00:03:50.305Z,1.02
2022-10-16T00:06:17.931Z,1.48
2022-10-16T00:08:44.649Z,1.25
2022-10-16T00:11:16.071Z,1.67
2022-10-16T00:13:43.518Z,1.10
2022-10-16T00:16:11.047Z,1.13
2022-10-16T00:18:38.354Z,1.00
2022-10-16T00:21:08.729Z,1.17
2022-10-16T00:23:35.916Z,1.10
2022-10-16T00:30:55.005Z,1.08
2022-10-16T00:33:21.728Z,1.00
2022-10-16T00:35:48.740Z,1.02
2022-10-16T00:38:15.363Z,1.00
2022-10-16T00:40:42.077Z,1.10
2022-10-16T00:43:32.577Z,1.00
2022-10-16T00:45:59.457Z,1.33
2022-10-16T00:48:26.243Z,1.00
2022-10-16T00:50:53.431Z,1.42
2022-10-16T00:58:12.473Z,1.08
2022-10-16T01:00:39.601Z,1.48
2022-10-16T01:05:54.750Z,0.80
2022-10-16T01:08:31.586Z,1.40
2022-10-16T01:11:08.052Z,1.05
2022-10-16T01:13:39.859Z,1.10
2022-10-16T01:18:45.342Z,1.00
2022-10-16T01:21:15.221Z,1.10
2022-10-16T01:24:00.389Z,1.10
2022-10-16T01:36:29.919Z,1.00
2022-10-16T01:38:57.954Z,1.10
2022-10-16T01:44:13.483Z,1.13
2022-10-16T01:49:07.340Z,1.10
2022-10-16T01:51:34.325Z,1.40
2022-10-16T01:58:56.697Z,1.15
2022-10-16T02:01:24.346Z,0.90
2022-10-16T02:03:52.924Z,1.20
2022-10-16T02:06:19.844Z,1.15
2022-10-16T02:08:46.493Z,1.00
2022-10-16T02:11:13.323Z,1.00
2022-10-16T02:13:42.974Z,1.40
2022-10-16T02:16:11.341Z,1.70
2022-10-16T02:23:55.684Z,1.10
2022-10-16T02:26:36.628Z,1.15
2022-10-16T02:31:35.201Z,1.40
2022-10-16T02:34:02.923Z,1.25
2022-10-16T02:36:30.544Z,0.98
2022-10-16T02:38:57.235Z,1.30
2022-10-16T02:41:24.545Z,0.90
2022-10-16T02:43:51.175Z,1.08
2022-10-16T02:46:18.199Z,1.25
2022-10-16T02:48:44.913Z,1.50
2022-10-16T02:53:37.097Z,1.35
2022-10-16T02:56:03.835Z,1.80
2022-10-16T02:58:30.538Z,1.55
2022-10-16T03:00:57.240Z,1.80
2022-10-16T03:03:23.970Z,1.42
2022-10-16T03:08:17.336Z,1.27
2022-10-16T03:10:44.028Z,1.35
2022-10-16T03:15:36.081Z,1.20
2022-10-16T03:18:02.754Z,2.08
2022-10-16T03:25:20.436Z,1.60
2022-10-16T03:27:47.264Z,1.30
2022-10-16T03:35:04.960Z,1.55
2022-10-16T03:39:57.104Z,1.42
2022-10-16T03:42:23.815Z,1.20
2022-10-16T03:44:50.564Z,1.20
2022-10-16T03:47:21.768Z,1.45
2022-10-16T03:49:48.941Z,1.48
2022-10-16T03:52:15.662Z,1.20
2022-10-16T03:54:42.367Z,1.20
2022-10-16T03:57:08.968Z,1.77
2022-10-16T03:59:35.586Z,1.48
2022-10-16T04:02:02.226Z,1.85
2022-10-16T04:04:28.822Z,1.40
2022-10-16T04:09:20.831Z,1.25
2022-10-16T04:11:47.479Z,1.25
2022-10-16T04:14:14.073Z,1.50
2022-10-16T04:16:40.684Z,1.40
2022-10-16T04:19:07.301Z,1.40
2022-10-16T04:21:34.011Z,1.50
2022-10-16T04:24:00.663Z,1.40
2022-10-16T04:26:27.308Z,1.23
2022-10-16T04:28:54.388Z,1.40
2022-10-16T04:31:21.345Z,1.58
2022-10-16T04:33:47.996Z,1.63
2022-10-16T04:36:14.647Z,1.50
2022-10-16T04:38:41.302Z,1.77
2022-10-16T04:41:29.524Z,1.70
2022-10-16T04:43:56.186Z,1.52
2022-10-16T04:46:22.952Z,1.80
2022-10-16T04:48:49.564Z,1.60
2022-10-16T04:56:07.139Z,1.60
2022-10-16T04:58:34.097Z,2.08
2022-10-16T05:03:26.198Z,2.10
2022-10-16T05:05:52.861Z,2.25
2022-10-16T05:13:10.793Z,2.33
2022-10-16T05:15:37.484Z,2.78
2022-10-16T05:18:04.289Z,2.42
2022-10-16T05:20:31.289Z,2.10
2022-10-16T05:22:58.180Z,2.97
2022-10-16T05:25:25.278Z,2.20
2022-10-16T05:30:18.372Z,2.22
2022-10-16T05:32:50.073Z,2.65
2022-10-16T05:35:17.251Z,2.97
2022-10-16T05:37:47.689Z,2.80
2022-10-16T05:40:15.499Z,2.72
2022-10-16T05:42:42.232Z,2.70
2022-10-16T05:45:10.425Z,2.42
2022-10-16T05:47:37.800Z,2.53
2022-10-16T05:50:05.416Z,2.75
2022-10-16T05:52:32.233Z,2.70
2022-10-16T05:54:59.162Z,2.42
2022-10-16T05:57:26.365Z,2.30
2022-10-16T05:59:53.892Z,2.50
2022-10-16T06:02:20.996Z,2.60
2022-10-16T06:04:47.897Z,2.67
2022-10-16T06:07:14.929Z,2.70
2022-10-16T06:09:41.816Z,3.05
2022-10-16T06:12:08.491Z,3.13
2022-10-16T06:14:35.496Z,2.90
2022-10-16T06:17:02.813Z,2.78
2022-10-16T06:21:55.331Z,2.70
2022-10-16T06:24:22.352Z,2.85
2022-10-16T06:26:49.390Z,3.30
2022-10-16T06:29:16.488Z,2.60
2022-10-16T06:31:43.374Z,3.10
2022-10-16T06:34:11.848Z,3.28
2022-10-16T06:36:39.413Z,3.00
2022-10-16T06:39:08.087Z,3.20
2022-10-16T06:41:35.380Z,3.95
2022-10-16T06:46:40.820Z,3.83
2022-10-16T06:49:07.948Z,3.65
2022-10-16T06:51:40.483Z,3.75
2022-10-16T06:54:10.073Z,4.10
2022-10-16T06:56:37.509Z,3.92
2022-10-16T06:59:04.908Z,4.05
2022-10-16T07:01:32.299Z,4.22
2022-10-16T07:03:59.071Z,5.18
2022-10-16T07:21:26.890Z,4.60
2022-10-16T07:23:58.523Z,4.05
2022-10-16T07:26:25.394Z,4.65
2022-10-16T07:28:52.281Z,4.82
2022-10-16T07:31:20.283Z,4.65
2022-10-16T07:33:48.832Z,4.07
2022-10-16T07:41:22.361Z,4.70
2022-10-16T07:43:52.948Z,4.13
2022-10-16T07:46:21.868Z,4.63
2022-10-16T07:48:49.265Z,4.57
2022-10-16T07:53:42.586Z,5.00
2022-10-16T07:56:09.556Z,5.13
2022-10-16T07:58:38.207Z,4.57
2022-10-16T08:01:06.156Z,4.50
2022-10-16T08:03:33.574Z,4.82
2022-10-16T08:06:00.768Z,4.70
2022-10-16T08:10:53.772Z,4.35
2022-10-16T08:13:22.075Z,4.50
2022-10-16T08:20:43.099Z,4.03
2022-10-16T08:28:08.645Z,3.30
2022-10-16T08:30:35.847Z,3.70
2022-10-16T08:40:27.184Z,3.88
2022-10-16T08:43:05.065Z,3.10
2022-10-16T08:50:30.868Z,3.20
2022-10-16T08:53:03.126Z,3.50
2022-10-16T08:55:31.390Z,2.95
2022-10-16T08:57:58.047Z,3.20
2022-10-16T09:00:26.222Z,2.70
2022-10-16T09:03:13.514Z,2.28
2022-10-16T09:05:51.941Z,2.28
2022-10-16T09:11:25.960Z,1.85
2022-10-16T09:14:12.567Z,1.88
2022-10-16T09:16:43.808Z,2.20
2022-10-16T09:19:16.259Z,2.00
2022-10-16T09:24:15.359Z,1.95
2022-10-16T09:26:42.284Z,1.85
2022-10-16T09:29:12.579Z,1.50
2022-10-16T09:31:39.324Z,1.85
2022-10-16T09:34:07.492Z,2.00
2022-10-16T09:36:46.018Z,1.75
2022-10-16T09:39:13.070Z,1.75
2022-10-16T09:41:44.982Z,1.95
2022-10-16T09:44:26.427Z,2.10
2022-10-16T09:47:03.199Z,1.63
2022-10-16T09:49:29.884Z,2.22
2022-10-16T09:52:06.626Z,2.03
2022-10-16T09:54:33.296Z,1.67
2022-10-16T09:57:06.423Z,2.15
2022-10-16T09:59:33.026Z,2.00
2022-10-16T10:02:04.514Z,1.90
2022-10-16T10:04:39.783Z,2.08
2022-10-16T10:09:32.038Z,1.65
2022-10-16T10:11:59.511Z,1.77
2022-10-16T10:14:29.960Z,1.65
2022-10-16T10:17:05.613Z,1.40
2022-10-16T10:19:32.948Z,1.65
2022-10-16T10:21:59.832Z,1.30
2022-10-16T10:27:11.214Z,1.50
2022-10-16T10:32:09.588Z,2.03
2022-10-16T10:34:36.252Z,1.50
2022-10-16T10:37:07.457Z,1.92
2022-10-16T10:42:24.607Z,1.30
2022-10-16T10:45:12.893Z,1.88
2022-10-16T10:55:39.281Z,1.50
2022-10-16T10:58:08.893Z,1.85
2022-10-16T11:00:54.381Z,2.05
2022-10-16T11:03:43.898Z,2.42
2022-10-16T11:06:16.022Z,1.60
2022-10-16T11:13:49.799Z,2.40
2022-10-16T11:16:50.438Z,2.47
2022-10-16T11:22:08.851Z,3.25
2022-10-16T11:24:50.803Z,2.90
2022-10-16T11:34:51.303Z,2.40
2022-10-16T11:40:27.996Z,2.10
2022-10-16T11:43:07.288Z,2.10
2022-10-16T11:56:15.025Z,1.70
2022-10-16T11:58:47.905Z,1.92
2022-10-16T12:03:50.773Z,1.55
2022-10-16T12:06:25.713Z,1.83
2022-10-16T12:08:53.322Z,1.77
2022-10-16T12:14:12.906Z,2.00
2022-10-16T12:16:53.777Z,1.85
2022-10-16T12:21:47.362Z,1.95
2022-10-16T12:24:31.433Z,2.00
2022-10-16T12:52:36.582Z,2.83
2022-10-16T12:57:39.367Z,2.08
2022-10-16T13:00:06.404Z,2.03
2022-10-16T13:02:45.198Z,2.00
2022-10-16T13:05:11.789Z,2.00
2022-10-16T13:07:50.703Z,2.10
2022-10-16T13:10:20.021Z,2.20
2022-10-16T13:12:49.759Z,2.42
2022-10-16T13:15:42.751Z,2.72
2022-10-16T13:18:20.541Z,3.03
2022-10-16T13:28:36.261Z,2.90
2022-10-16T13:31:03.697Z,2.75
2022-10-16T13:40:55.101Z,3.80
2022-10-16T13:43:26.941Z,3.67
2022-10-16T13:45:56.538Z,3.00
2022-10-16T13:48:23.585Z,2.63
2022-10-16T14:00:54.022Z,1.73
2022-10-16T14:03:21.303Z,2.15
2022-10-16T14:06:13.108Z,2.75
2022-10-16T14:11:09.259Z,2.00
2022-10-16T14:13:40.235Z,2.40
2022-10-16T14:16:17.756Z,1.77
2022-10-16T14:18:47.286Z,2.35
2022-10-16T14:21:15.564Z,1.70
2022-10-16T14:23:42.527Z,1.80
2022-10-16T14:26:09.392Z,1.52
2022-10-16T14:28:36.799Z,1.88
2022-10-16T14:31:16.408Z,1.77
2022-10-16T14:33:43.048Z,1.90
2022-10-16T14:36:15.756Z,1.75
2022-10-16T14:41:09.892Z,1.50
2022-10-16T14:43:41.135Z,1.92
2022-10-16T14:48:43.814Z,2.10
2022-10-16T14:53:41.858Z,2.38
2022-10-16T14:58:45.395Z,1.90
2022-10-16T15:01:12.910Z,2.53
2022-10-16T15:03:40.309Z,2.60
2022-10-16T15:06:17.240Z,3.20
2022-10-16T15:08:43.896Z,2.80
2022-10-16T15:11:14.883Z,2.25
2022-10-16T15:13:41.538Z,2.00
2022-10-16T15:16:11.747Z,2.40
2022-10-16T15:18:38.527Z,2.38
2022-10-16T15:21:05.298Z,1.73
2022-10-16T15:25:57.827Z,2.50
2022-10-16T15:28:25.533Z,2.47
2022-10-16T15:30:56.234Z,2.13
2022-10-16T15:38:16.598Z,3.20
2022-10-16T15:40:43.722Z,6.10
2022-10-16T15:43:11.534Z,2.72
2022-10-16T15:50:29.054Z,2.50
2022-10-16T15:52:55.739Z,2.38
2022-10-16T15:55:22.349Z,2.20
2022-10-16T15:57:48.917Z,2.10
2022-10-16T16:05:09.408Z,2.40
2022-10-16T16:10:03.555Z,2.83
2022-10-16T16:12:30.638Z,3.05
2022-10-16T16:14:58.911Z,3.10
2022-10-16T16:17:28.573Z,3.22
2022-10-16T16:19:55.170Z,4.40
2022-10-16T16:22:21.849Z,4.68
2022-10-16T16:24:48.590Z,4.72
2022-10-16T16:27:15.163Z,4.55
2022-10-16T16:32:07.785Z,3.78
2022-10-16T16:34:34.693Z,3.92
2022-10-16T16:44:17.838Z,3.53
2022-10-16T16:46:45.327Z,3.42
2022-10-16T16:49:12.802Z,3.38
2022-10-16T16:51:40.771Z,3.00
2022-10-16T16:54:10.738Z,3.03
2022-10-16T16:56:37.462Z,2.75
2022-10-16T16:59:04.941Z,3.25
2022-10-16T17:01:32.524Z,3.08
2022-10-16T17:06:27.693Z,3.25
2022-10-16T17:08:54.605Z,3.50
2022-10-16T17:11:25.501Z,3.80
2022-10-16T17:16:20.858Z,4.03
2022-10-16T17:18:47.773Z,3.65
2022-10-16T17:21:14.455Z,3.33
2022-10-16T17:23:41.244Z,3.65
2022-10-16T17:26:12.253Z,3.47
2022-10-16T17:28:39.241Z,3.80
2022-10-16T17:36:06.988Z,3.30
2022-10-16T17:38:34.126Z,3.15
2022-10-16T17:43:35.973Z,3.35
2022-10-16T17:46:03.220Z,3.90
2022-10-16T17:48:29.999Z,3.33
2022-10-16T17:50:56.691Z,3.47
2022-10-16T17:53:23.544Z,3.50
2022-10-16T17:55:50.395Z,3.38
2022-10-16T18:05:37.727Z,3.47
2022-10-16T18:08:04.511Z,3.85
2022-10-16T18:10:31.135Z,4.07
2022-10-16T18:15:23.117Z,4.07
2022-10-16T18:17:49.750Z,4.28
2022-10-16T18:20:16.392Z,3.78
2022-10-16T18:22:43.046Z,4.53
2022-10-16T18:25:10.362Z,5.72
2022-10-16T18:30:02.488Z,5.75
2022-10-16T18:32:29.494Z,6.13
2022-10-16T18:34:56.418Z,6.25
2022-10-16T18:37:23.320Z,6.03
2022-10-16T18:39:50.058Z,5.75
2022-10-16T18:44:42.957Z,6.25
2022-10-16T18:47:09.700Z,6.22
2022-10-16T18:49:36.592Z,13.35
2022-10-16T18:54:30.942Z,6.63
2022-10-16T18:56:57.703Z,7.82
2022-10-16T19:01:52.690Z,9.13
2022-10-16T19:04:20.166Z,9.90
2022-10-16T19:11:42.103Z,11.07
2022-10-16T19:14:09.894Z,12.38
2022-10-16T19:24:00.132Z,11.60
2022-10-16T19:26:28.786Z,11.77
2022-10-16T19:28:58.420Z,12.80
2022-10-16T19:33:52.828Z,11.52
2022-10-16T19:36:23.293Z,9.95
2022-10-16T19:43:44.691Z,10.57
2022-10-16T19:46:15.949Z,11.00
2022-10-16T19:48:42.982Z,11.23
2022-10-16T19:51:13.493Z,12.52
2022-10-16T19:53:40.168Z,13.10
2022-10-16T19:56:14.763Z,14.77
2022-10-16T20:08:32.279Z,15.07
2022-10-16T20:11:00.141Z,21.15
2022-10-16T20:20:46.129Z,17.60
2022-10-16T20:23:12.976Z,17.10
2022-10-16T20:25:40.617Z,16.77
2022-10-16T20:28:08.393Z,17.27
2022-10-16T20:35:27.129Z,16.38
2022-10-16T20:37:53.920Z,16.27
2022-10-16T20:42:46.218Z,16.63
2022-10-16T20:45:12.893Z,17.33
2022-10-16T20:52:34.636Z,18.15
2022-10-16T20:55:01.653Z,17.80
2022-10-16T20:57:28.495Z,18.40
2022-10-16T20:59:55.913Z,17.92
2022-10-16T21:07:15.966Z,20.33
2022-10-16T21:09:43.020Z,21.75
2022-10-16T21:12:10.375Z,20.67
2022-10-16T21:14:42.265Z,19.23
2022-10-16T21:17:13.771Z,20.20
2022-10-16T21:19:40.497Z,19.55
2022-10-16T21:22:07.235Z,18.90
2022-10-16T21:27:00.183Z,19.55
2022-10-16T21:29:26.816Z,20.33
2022-10-16T21:31:53.686Z,19.60
2022-10-16T21:36:45.819Z,20.17
2022-10-16T21:39:16.863Z,19.73
2022-10-16T21:41:44.751Z,20.67
2022-10-16T21:44:11.786Z,22.40
2022-10-16T21:46:39.524Z,22.25
2022-10-16T21:49:07.598Z,22.10
2022-10-16T21:51:37.330Z,21.08
2022-10-16T21:54:05.028Z,21.55
2022-10-16T21:56:31.945Z,22.17
2022-10-16T21:58:58.623Z,21.90
2022-10-16T22:01:26.471Z,21.92
2022-10-16T22:03:53.815Z,20.50
2022-10-16T22:08:50.123Z,20.50
2022-10-16T22:13:45.661Z,20.83
2022-10-16T22:16:12.696Z,19.75
2022-10-16T22:18:39.751Z,20.30
2022-10-16T22:23:35.437Z,20.23
2022-10-16T22:26:02.835Z,19.83
2022-10-16T22:30:54.866Z,18.92
2022-10-16T22:41:16.086Z,18.45
2022-10-16T22:46:12.099Z,18.05
2022-10-16T22:48:38.819Z,18.15
2022-10-16T22:51:06.167Z,17.65
2022-10-16T22:53:33.171Z,17.15
2022-10-16T22:55:59.839Z,16.98
2022-10-16T22:58:26.723Z,17.73
2022-10-16T23:00:53.464Z,18.45
2022-10-16T23:03:20.189Z,16.05
2022-10-16T23:17:58.874Z,15.25
2022-10-16T23:20:25.699Z,14.95
2022-10-16T23:25:17.804Z,14.05
2022-10-16T23:27:44.804Z,14.13
2022-10-16T23:30:11.453Z,13.85
2022-10-16T23:32:38.055Z,13.27
2022-10-16T23:35:10.663Z,12.23
2022-10-16T23:44:53.425Z,13.07
2022-10-16T23:47:20.074Z,12.25
2022-10-16T23:49:46.655Z,13.15
2022-10-16T23:52:13.308Z,12.90
2022-10-16T23:54:39.892Z,11.75
2022-10-16T23:57:06.458Z,11.25
